Belle Vernon, Ohio
Current Conditions -  °F | °C
As of 3:53 AM on Wednesday 22 Oct 2014 (Local Time) from KMNN Reporting Station
Overcast Overcast  
Wind Chill: 38°   Ceiling: 800
Heat Index: 43°   Visibility: 7mi
Dew Point: 40°   Wind: 9mph
Humidity: 89%   Direction: 330°NNW
Pressure: 30.17"   Gusts: NA
Location:  40.948°N, 83.1346°W
Report Text: KMNN 220753Z AUTO 33008KT 7SM OVC008 06/04 A3017 RMK AO2 SLP223 T00610044 TSNO
Loading
Personal Weather Stations






























Interactive Weather Map
Tropical Storm Tracking
New forecast layout! Learn more

10-Day Weather Forecast

Advertisements
Track Severe Weather on mobile